Harney Peak, South Dakota
Current Conditions -  °F | °C
As of 6:53 PM on Friday 24 Oct 2014 (Local Time) from KCUT Reporting Station
Clear Clear  
Wind Chill: 51°   Ceiling: Unl
Heat Index: 51°   Visibility: 10mi
Dew Point: 35°   Wind: 7mph
Humidity: 54%   Direction: 50°NE
Pressure: 30.15"   Gusts: NA
Location:  43.6653°N, 103.766°W
Report Text: KCUT 250053Z AUTO 05006KT 10SM CLR 11/02 A3015 RMK AO2 SLP176 T01060017
Loading
Personal Weather Stations






























Interactive Weather Map
Tropical Storm Tracking
New forecast layout! Learn more

10-Day Weather Forecast

Advertisements
Track Severe Weather on mobile